Time;durP1;ratioP1;P1;durP2;ratioP2;P2;SDS_P1;SDS_P2;PMS_P1;PMS_P2;Temp;Humidity;BMP_temperature;BMP_pressure;BME280_temperature;BME280_humidity;BME280_pressure;Samples;Min_cycle;Max_cycle;Signal;HPM_P1;HPM_P2
2022/10/14 00:01:47;;;;;;;11.55;5.45;;;16.20;99.90;;;;;;1921725;73;21151;-87
2022/10/14 00:07:18;;;;;;;9.43;4.97;;;16.20;99.90;;;;;;1932187;72;22260;-87
2022/10/14 00:10:10;;;;;;;11.97;5.55;;;16.20;99.90;;;;;;1837190;76;21589;-87
2022/10/14 00:13:02;;;;;;;10.75;5.30;;;16.20;99.90;;;;;;1903276;74;21621;-87
2022/10/14 00:15:53;;;;;;;8.48;5.22;;;16.20;99.90;;;;;;1898621;74;21787;-87
2022/10/14 00:18:46;;;;;;;8.70;5.05;;;16.10;99.90;;;;;;1905726;74;21110;-87
2022/10/14 00:21:39;;;;;;;9.98;5.25;;;16.10;99.90;;;;;;1900529;74;21163;-87
2022/10/14 00:24:31;;;;;;;8.53;5.17;;;16.10;99.90;;;;;;1905880;74;21096;-86
2022/10/14 00:27:23;;;;;;;9.88;5.60;;;16.10;99.90;;;;;;1895810;74;21076;-86
2022/10/14 00:33:03;;;;;;;9.25;5.15;;;16.10;99.90;;;;;;1932999;72;22246;-87
2022/10/14 00:35:59;;;;;;;6.78;5.55;;;16.10;99.90;;;;;;1892418;75;21230;-87
2022/10/14 00:38:53;;;;;;;7.47;5.25;;;16.10;99.90;;;;;;1907671;75;21251;-86
2022/10/14 00:41:47;;;;;;;8.98;5.40;;;16.00;99.90;;;;;;1900964;75;21173;-86
2022/10/14 00:45:05;;;;;;;9.18;5.35;;;16.00;99.90;;;;;;1899570;73;21233;-88
2022/10/14 00:47:57;;;;;;;9.23;5.47;;;16.00;99.90;;;;;;1902455;75;21075;-88
2022/10/14 00:50:51;;;;;;;10.32;7.87;;;15.90;99.90;;;;;;1896228;74;21211;-87
2022/10/14 00:53:44;;;;;;;15.23;7.50;;;15.70;99.90;;;;;;1892457;74;21157;-87
2022/10/14 00:56:36;;;;;;;11.65;6.95;;;15.60;99.90;;;;;;1892749;75;21163;-88
2022/10/14 00:59:30;;;;;;;12.65;6.80;;;15.50;99.90;;;;;;1901231;75;21065;-88
2022/10/14 01:02:21;;;;;;;10.50;6.22;;;15.60;99.90;;;;;;1896942;75;21053;-88
2022/10/14 01:05:15;;;;;;;9.63;6.03;;;15.60;99.90;;;;;;1897412;75;21131;-87
2022/10/14 01:08:10;;;;;;;11.57;6.35;;;15.70;99.90;;;;;;1898952;75;21174;-88
2022/10/14 01:11:06;;;;;;;10.48;6.08;;;15.80;99.90;;;;;;1901655;75;21062;-87
2022/10/14 01:14:01;;;;;;;8.70;5.60;;;15.80;99.90;;;;;;1905606;75;21122;-87
2022/10/14 01:16:57;;;;;;;10.23;6.37;;;15.90;99.90;;;;;;1896878;73;21592;-87
2022/10/14 01:20:10;;;;;;;10.00;5.72;;;15.80;99.90;;;;;;1894426;75;21156;-87
2022/10/14 01:23:10;;;;;;;5.97;5.12;;;15.90;99.90;;;;;;1903247;75;21068;-88
2022/10/14 01:26:07;;;;;;;11.12;5.75;;;15.80;99.90;;;;;;1892402;75;21163;-87
2022/10/14 01:29:05;;;;;;;11.03;5.17;;;15.90;99.90;;;;;;1891686;75;21114;-87
2022/10/14 01:32:00;;;;;;;8.23;5.50;;;15.90;99.90;;;;;;1887016;75;21131;-87
2022/10/14 01:34:54;;;;;;;9.05;5.37;;;15.90;99.90;;;;;;1885449;75;21133;-87
2022/10/14 01:37:50;;;;;;;7.20;5.53;;;15.80;99.90;;;;;;1893240;75;21052;-87
2022/10/14 01:43:32;;;;;;;9.35;5.97;;;15.80;99.90;;;;;;1941395;72;22378;-87
2022/10/14 01:46:25;;;;;;;9.10;5.37;;;15.80;99.90;;;;;;1898463;73;21214;-86
2022/10/14 01:49:20;;;;;;;9.35;4.85;;;15.70;99.90;;;;;;1893714;75;21140;-88
2022/10/14 01:52:14;;;;;;;7.72;5.20;;;15.80;99.90;;;;;;1899010;75;21141;-88
2022/10/14 01:55:10;;;;;;;9.85;5.20;;;15.80;99.90;;;;;;1898766;75;21257;-88
2022/10/14 01:58:02;;;;;;;9.25;5.17;;;15.80;99.90;;;;;;1892166;75;21059;-87
2022/10/14 02:00:54;;;;;;;7.85;5.22;;;15.90;99.90;;;;;;1900839;75;21129;-86
2022/10/14 02:03:47;;;;;;;10.90;5.45;;;15.90;99.90;;;;;;1898870;75;21671;-87
2022/10/14 02:09:22;;;;;;;7.28;5.83;;;15.80;99.90;;;;;;1910688;72;22266;-87
2022/10/14 02:12:20;;;;;;;9.35;5.50;;;15.80;99.90;;;;;;1877730;75;21115;-89
2022/10/14 02:15:16;;;;;;;7.03;4.97;;;15.80;99.90;;;;;;1880289;74;21171;-88
2022/10/14 02:18:11;;;;;;;7.80;4.75;;;15.70;99.90;;;;;;1877720;75;21216;-88
2022/10/14 02:21:06;;;;;;;8.58;4.47;;;15.70;99.90;;;;;;1879513;75;21176;-87
2022/10/14 02:24:00;;;;;;;5.72;4.30;;;15.70;99.90;;;;;;1877851;75;21148;-87
2022/10/14 02:26:55;;;;;;;10.50;4.95;;;15.70;99.90;;;;;;1880281;75;21149;-88
2022/10/14 02:29:48;;;;;;;7.42;4.53;;;15.80;99.90;;;;;;1880561;75;21178;-87
2022/10/14 02:32:41;;;;;;;10.20;4.65;;;15.80;99.90;;;;;;1878505;75;21229;-87
2022/10/14 02:35:37;;;;;;;6.58;4.37;;;15.80;99.90;;;;;;1875230;75;21051;-88
2022/10/14 02:38:30;;;;;;;11.80;5.08;;;15.80;99.90;;;;;;1873336;75;21165;-88
2022/10/14 02:41:25;;;;;;;7.25;4.55;;;15.90;99.90;;;;;;1875738;75;21112;-87
2022/10/14 02:44:16;;;;;;;8.90;4.45;;;15.80;99.90;;;;;;1873929;75;21151;-87
2022/10/14 02:47:08;;;;;;;7.20;4.70;;;15.80;99.90;;;;;;1872944;74;21239;-87
2022/10/14 02:50:00;;;;;;;8.83;5.03;;;15.80;99.90;;;;;;1884275;75;21094;-89
2022/10/14 02:52:52;;;;;;;10.18;4.45;;;15.70;99.90;;;;;;1879194;75;21027;-88
2022/10/14 02:55:43;;;;;;;8.68;5.35;;;15.70;99.90;;;;;;1873844;75;21262;-88
2022/10/14 02:58:35;;;;;;;6.60;4.28;;;15.70;99.90;;;;;;1873413;75;21097;-88
2022/10/14 03:01:27;;;;;;;6.20;4.90;;;15.60;99.90;;;;;;1880143;75;21176;-88
2022/10/14 03:04:20;;;;;;;6.20;4.90;;;15.60;99.90;;;;;;1873428;75;21119;-87
2022/10/14 03:07:13;;;;;;;6.78;4.83;;;15.70;99.90;;;;;;1874776;75;21098;-88
2022/10/14 03:10:07;;;;;;;8.30;4.45;;;15.70;99.90;;;;;;1838129;77;21321;-88
2022/10/14 03:12:58;;;;;;;8.00;4.65;;;15.70;99.90;;;;;;1881229;75;21059;-88
2022/10/14 03:15:52;;;;;;;7.22;4.58;;;15.70;99.90;;;;;;1871722;74;21231;-88
2022/10/14 03:18:43;;;;;;;7.70;4.50;;;15.60;99.90;;;;;;1872703;75;21169;-87
2022/10/14 03:24:29;;;;;;;6.42;4.62;;;15.60;99.90;;;;;;1941898;72;22965;-87
2022/10/14 03:27:31;;;;;;;9.55;4.78;;;15.60;99.90;;;;;;1908745;74;21109;-88
2022/10/14 03:30:24;;;;;;;9.10;4.67;;;15.60;99.90;;;;;;1905960;74;21110;-88
2022/10/14 03:33:17;;;;;;;6.67;5.03;;;15.70;99.90;;;;;;1908103;74;21111;-87
2022/10/14 03:36:12;;;;;;;8.88;5.12;;;15.70;99.90;;;;;;1905501;74;21219;-87
2022/10/14 03:39:05;;;;;;;8.70;4.85;;;15.70;99.90;;;;;;1905836;74;21128;-88
2022/10/14 03:41:58;;;;;;;8.15;5.20;;;15.70;99.90;;;;;;1916500;74;21352;-87
2022/10/14 03:44:51;;;;;;;10.80;5.53;;;15.80;99.90;;;;;;1908309;74;21193;-87
2022/10/14 03:47:44;;;;;;;10.53;5.10;;;15.80;99.90;;;;;;1904085;73;21126;-87
2022/10/14 03:50:36;;;;;;;7.90;5.08;;;15.80;99.90;;;;;;1908129;74;21206;-87
2022/10/14 03:53:29;;;;;;;7.67;5.28;;;15.80;99.90;;;;;;1907951;74;21604;-88
2022/10/14 03:56:21;;;;;;;8.90;5.37;;;15.80;99.90;;;;;;1908798;74;21155;-88
2022/10/14 03:59:13;;;;;;;7.08;5.30;;;15.80;99.90;;;;;;1905359;74;21091;-87
2022/10/14 04:02:06;;;;;;;8.90;4.60;;;15.80;99.90;;;;;;1905100;74;21090;-87
2022/10/14 04:04:59;;;;;;;7.47;4.75;;;15.70;99.90;;;;;;1905232;74;21152;-87
2022/10/14 04:07:51;;;;;;;8.33;4.95;;;15.70;99.90;;;;;;1907237;74;21043;-87
2022/10/14 04:13:26;;;;;;;8.48;4.80;;;15.70;99.90;;;;;;1932060;72;22190;-86
2022/10/14 04:16:19;;;;;;;7.42;5.03;;;15.70;99.90;;;;;;1890196;73;21155;-86
2022/10/14 04:19:17;;;;;;;8.65;4.83;;;15.70;99.90;;;;;;1891602;75;21555;-89
2022/10/14 04:22:10;;;;;;;12.98;5.50;;;15.70;99.90;;;;;;1891702;75;21135;-89
2022/10/14 04:25:02;;;;;;;8.63;5.28;;;15.70;99.90;;;;;;1890783;75;21432;-88
2022/10/14 04:27:54;;;;;;;9.78;5.10;;;15.70;99.90;;;;;;1890584;75;21099;-87
2022/10/14 04:30:47;;;;;;;10.45;5.05;;;15.70;99.90;;;;;;1882572;75;21103;-86
2022/10/14 04:33:41;;;;;;;9.23;6.03;;;15.70;99.90;;;;;;1887349;75;21163;-87
2022/10/14 04:36:34;;;;;;;9.90;5.33;;;15.70;99.90;;;;;;1887433;75;21111;-87
2022/10/14 04:39:26;;;;;;;7.60;5.67;;;15.70;99.90;;;;;;1894429;75;21101;-87
2022/10/14 04:42:18;;;;;;;7.72;5.40;;;15.80;99.90;;;;;;1877799;75;21171;-88
2022/10/14 04:45:12;;;;;;;9.98;5.20;;;15.80;99.90;;;;;;1887765;75;21139;-88
2022/10/14 04:48:08;;;;;;;7.78;4.62;;;15.80;99.90;;;;;;1884157;73;21213;-87
2022/10/14 04:51:00;;;;;;;5.87;4.42;;;15.80;99.90;;;;;;1883566;75;21248;-87
2022/10/14 04:53:54;;;;;;;8.88;4.58;;;15.80;99.90;;;;;;1876947;75;21581;-88
2022/10/14 04:56:53;;;;;;;9.35;4.80;;;15.80;99.90;;;;;;1894528;75;21135;-88
2022/10/14 04:59:44;;;;;;;7.00;5.17;;;15.80;99.90;;;;;;1883329;75;21199;-87
2022/10/14 05:02:37;;;;;;;8.15;5.35;;;15.80;99.90;;;;;;1881076;75;21187;-88
2022/10/14 05:05:30;;;;;;;8.35;4.78;;;15.80;99.90;;;;;;1875757;75;21642;-87
2022/10/14 05:08:22;;;;;;;10.63;5.17;;;15.80;99.90;;;;;;1890816;75;21083;-87
2022/10/14 05:11:15;;;;;;;8.20;5.40;;;15.80;99.90;;;;;;1889851;75;21103;-88
2022/10/14 05:16:58;;;;;;;6.42;4.37;;;15.80;99.90;;;;;;1927899;72;22262;-90
2022/10/14 05:19:51;;;;;;;6.53;4.20;;;15.70;99.90;;;;;;1905303;75;21128;-88
2022/10/14 05:22:45;;;;;;;7.50;3.92;;;15.60;99.90;;;;;;1899807;75;21152;-88
2022/10/14 05:25:37;;;;;;;6.92;3.80;;;15.60;99.90;;;;;;1898226;75;21423;-87
2022/10/14 05:31:12;;;;;;;8.50;4.47;;;15.50;99.90;;;;;;1921181;72;22811;-87
2022/10/14 05:34:08;;;;;;;7.15;4.22;;;15.50;99.90;;;;;;1931543;73;21196;-88
2022/10/14 05:36:59;;;;;;;7.00;4.33;;;15.50;99.90;;;;;;1927309;73;21041;-88
2022/10/14 05:39:54;;;;;;;7.90;4.78;;;15.50;99.90;;;;;;1934264;73;21374;-87
2022/10/14 05:42:47;;;;;;;6.00;4.55;;;15.50;99.90;;;;;;1941644;73;21141;-87
2022/10/14 05:45:40;;;;;;;8.10;4.25;;;15.40;99.90;;;;;;1934406;73;21823;-88
2022/10/14 05:48:32;;;;;;;7.17;4.60;;;15.50;99.90;;;;;;1931227;73;21656;-88
2022/10/14 05:51:33;;;;;;;9.65;5.30;;;15.50;99.90;;;;;;1925814;73;21500;-87
2022/10/14 05:54:26;;;;;;;8.78;5.40;;;15.50;99.90;;;;;;1926516;73;21127;-88
2022/10/14 05:57:18;;;;;;;7.30;5.00;;;15.50;99.90;;;;;;1938853;73;21175;-87
2022/10/14 06:02:51;;;;;;;12.95;5.65;;;15.50;99.90;;;;;;1950139;72;22285;-86
2022/10/14 06:05:44;;;;;;;8.35;5.20;;;15.60;99.90;;;;;;1920047;73;21105;-86
2022/10/14 06:08:36;;;;;;;11.48;6.05;;;15.60;99.90;;;;;;1916318;73;21248;-86
2022/10/14 06:11:28;;;;;;;11.38;6.17;;;15.60;99.90;;;;;;1922424;73;21035;-85
2022/10/14 06:14:19;;;;;;;8.80;5.92;;;15.60;99.90;;;;;;1915768;73;21197;-85
2022/10/14 06:17:11;;;;;;;11.20;6.20;;;15.70;99.90;;;;;;1927069;73;21151;-86
2022/10/14 06:20:02;;;;;;;12.75;7.03;;;15.80;99.90;;;;;;1922066;73;21124;-85
2022/10/14 06:22:54;;;;;;;12.18;5.92;;;15.80;99.90;;;;;;1916832;73;21750;-85
2022/10/14 06:25:45;;;;;;;11.20;6.87;;;15.90;99.90;;;;;;1923356;73;21120;-86
2022/10/14 06:28:37;;;;;;;13.32;6.62;;;16.00;99.90;;;;;;1923860;73;21184;-86
2022/10/14 06:31:29;;;;;;;12.60;6.75;;;16.00;99.90;;;;;;1924585;73;21154;-86
2022/10/14 06:34:23;;;;;;;8.90;6.00;;;16.10;99.90;;;;;;1916956;73;21103;-86
2022/10/14 06:37:15;;;;;;;10.48;6.70;;;16.10;99.90;;;;;;1929922;73;21067;-86
2022/10/14 06:40:09;;;;;;;8.90;5.08;;;16.10;99.90;;;;;;1926237;73;21221;-85
2022/10/14 06:43:00;;;;;;;7.12;4.65;;;16.20;99.90;;;;;;1919934;73;21130;-85
2022/10/14 06:45:53;;;;;;;8.23;4.85;;;16.10;99.90;;;;;;1918240;73;21172;-85
2022/10/14 06:48:45;;;;;;;6.83;4.70;;;16.10;99.90;;;;;;1916853;73;21063;-85
2022/10/14 06:51:39;;;;;;;6.10;4.28;;;16.10;99.90;;;;;;1919822;73;21205;-85
2022/10/14 06:54:30;;;;;;;7.80;5.20;;;16.00;99.90;;;;;;1916613;73;21644;-86
2022/10/14 06:57:23;;;;;;;9.25;5.60;;;15.90;99.90;;;;;;1916978;73;21167;-86
2022/10/14 07:00:17;;;;;;;9.23;4.97;;;15.80;99.90;;;;;;1922129;73;21099;-85
2022/10/14 07:03:09;;;;;;;6.15;4.03;;;15.80;99.90;;;;;;1911844;73;22699;-86
2022/10/14 07:06:02;;;;;;;8.58;4.20;;;15.70;99.90;;;;;;1906875;75;21105;-87
2022/10/14 07:08:53;;;;;;;5.58;4.00;;;15.80;99.90;;;;;;1895177;74;21192;-86
2022/10/14 07:11:45;;;;;;;4.72;3.95;;;15.80;99.90;;;;;;1911223;75;21169;-86
2022/10/14 07:14:36;;;;;;;8.43;3.90;;;15.80;99.90;;;;;;1905240;75;21239;-86
2022/10/14 07:17:28;;;;;;;5.87;3.70;;;15.90;99.90;;;;;;1901960;75;21102;-86
2022/10/14 07:20:19;;;;;;;6.85;4.30;;;16.00;99.90;;;;;;1903806;75;21181;-85
2022/10/14 07:25:50;;;;;;;8.15;4.83;;;16.10;99.90;;;;;;1940724;72;22161;-87
2022/10/14 07:28:42;;;;;;;8.40;5.50;;;16.20;99.90;;;;;;1916655;73;21270;-86
2022/10/14 07:31:33;;;;;;;11.12;6.97;;;16.30;99.90;;;;;;1930436;73;21116;-86
2022/10/14 07:34:25;;;;;;;10.65;6.78;;;16.40;99.90;;;;;;1936861;73;21164;-86
2022/10/14 07:37:16;;;;;;;11.65;6.87;;;16.50;99.90;;;;;;1886987;73;21046;-86
2022/10/14 07:40:10;;;;;;;12.35;7.85;;;16.60;99.90;;;;;;1924456;73;21090;-86
2022/10/14 07:43:01;;;;;;;10.28;6.90;;;16.70;99.90;;;;;;1918534;73;21130;-86
2022/10/14 07:45:59;;;;;;;13.40;8.33;;;16.80;99.90;;;;;;1920245;73;21174;-86
2022/10/14 07:48:45;;;;;;;12.65;7.20;;;16.80;99.90;;;;;;1931025;73;21128;-87
2022/10/14 07:51:39;;;;;;;10.32;7.53;;;16.80;99.90;;;;;;1939857;73;21066;-86
2022/10/14 07:54:31;;;;;;;13.85;7.80;;;16.90;99.90;;;;;;1931269;73;21039;-87
2022/10/14 07:57:22;;;;;;;13.50;7.50;;;17.00;99.90;;;;;;1925770;73;21168;-86
2022/10/14 08:00:15;;;;;;;11.25;7.22;;;17.00;99.90;;;;;;1924525;73;21082;-86
2022/10/14 08:03:06;;;;;;;11.38;7.25;;;17.10;99.90;;;;;;1917620;74;21106;-87
2022/10/14 08:06:02;;;;;;;11.75;7.55;;;17.20;99.90;;;;;;1924736;73;21203;-87
2022/10/14 08:08:54;;;;;;;13.98;8.03;;;17.20;99.90;;;;;;1922509;73;21050;-86
2022/10/14 08:14:24;;;;;;;11.00;7.50;;;17.20;99.90;;;;;;1954306;72;22323;-86
2022/10/14 08:17:16;;;;;;;12.82;7.95;;;17.20;99.90;;;;;;1918478;73;21136;-87
2022/10/14 08:20:09;;;;;;;11.60;7.22;;;17.20;99.90;;;;;;1940668;73;21475;-87
2022/10/14 08:23:00;;;;;;;11.22;7.12;;;17.30;99.90;;;;;;1923025;73;21117;-86
2022/10/14 08:28:31;;;;;;;10.65;7.37;;;17.40;99.90;;;;;;1944995;72;22193;-88
2022/10/14 08:31:23;;;;;;;9.93;8.10;;;17.30;99.90;;;;;;1896852;75;21175;-86
2022/10/14 08:34:14;;;;;;;15.32;8.15;;;17.30;99.90;;;;;;1884414;75;21114;-86
2022/10/14 08:37:05;;;;;;;12.58;8.23;;;17.40;99.90;;;;;;1884651;75;21125;-87
2022/10/14 08:39:56;;;;;;;10.43;8.70;;;17.50;99.90;;;;;;1890580;75;21422;-87
2022/10/14 08:42:51;;;;;;;12.55;9.00;;;17.60;99.90;;;;;;1886496;75;21109;-87
2022/10/14 08:45:45;;;;;;;12.47;8.15;;;17.70;99.90;;;;;;1901545;75;21109;-85
2022/10/14 08:48:38;;;;;;;12.60;8.13;;;17.80;99.90;;;;;;1911551;75;21044;-87
2022/10/14 08:51:31;;;;;;;11.40;8.18;;;18.00;99.90;;;;;;1894144;75;21106;-86
2022/10/14 08:54:27;;;;;;;10.43;7.15;;;17.90;99.90;;;;;;1892041;75;21120;-86
2022/10/14 08:57:21;;;;;;;9.35;6.05;;;18.00;99.90;;;;;;1899843;75;21108;-86
2022/10/14 09:00:15;;;;;;;8.83;6.20;;;18.10;99.90;;;;;;1904214;75;21156;-86
2022/10/14 09:03:12;;;;;;;7.70;6.00;;;18.20;99.90;;;;;;1885037;75;21105;-87
2022/10/14 09:06:05;;;;;;;9.98;6.20;;;18.30;99.90;;;;;;1885274;75;21114;-87
2022/10/14 09:08:59;;;;;;;9.60;6.33;;;18.10;99.90;;;;;;1885378;73;21570;-87
2022/10/14 09:11:53;;;;;;;9.80;6.08;;;18.10;99.90;;;;;;1885461;75;21104;-87
2022/10/14 09:14:48;;;;;;;12.25;7.15;;;18.40;99.90;;;;;;1903281;74;21047;-87
2022/10/14 09:17:43;;;;;;;9.98;6.35;;;18.60;99.90;;;;;;1894875;75;21110;-87
2022/10/14 09:20:35;;;;;;;10.18;6.95;;;18.70;99.90;;;;;;1914057;75;21055;-86
2022/10/14 09:23:28;;;;;;;10.93;6.85;;;18.80;99.90;;;;;;1894521;73;21205;-86
2022/10/14 09:26:21;;;;;;;10.20;7.00;;;18.90;99.90;;;;;;1901250;75;21149;-86
2022/10/14 09:29:21;;;;;;;14.05;8.03;;;19.10;99.90;;;;;;1898262;75;21078;-87
2022/10/14 09:32:16;;;;;;;9.18;6.85;;;19.10;99.90;;;;;;1887558;75;21168;-86
2022/10/14 09:35:15;;;;;;;12.65;6.67;;;19.00;99.90;;;;;;1884494;75;21142;-86
2022/10/14 09:38:06;;;;;;;9.90;5.53;;;19.10;99.90;;;;;;1884485;75;21079;-88
2022/10/14 09:41:00;;;;;;;8.28;5.97;;;19.20;99.90;;;;;;1895178;75;21147;-87
2022/10/14 09:44:21;;;;;;;10.70;6.50;;;19.30;99.90;;;;;;1874724;75;21174;-86
2022/10/14 09:50:00;;;;;;;10.93;6.45;;;19.40;99.90;;;;;;1961380;72;22220;-86
2022/10/14 09:52:55;;;;;;;10.10;6.05;;;19.40;99.90;;;;;;1933883;73;21142;-86
2022/10/14 09:55:50;;;;;;;8.03;5.75;;;19.40;99.90;;;;;;1940309;73;21055;-86
2022/10/14 09:58:45;;;;;;;8.23;5.97;;;19.50;99.90;;;;;;1923315;73;21097;-86
2022/10/14 10:01:41;;;;;;;8.45;6.20;;;19.50;99.90;;;;;;1930707;73;21534;-86
2022/10/14 10:11:38;;;;;;;9.08;4.92;;;20.00;99.90;;;;;;2000444;71;22228;-88
2022/10/14 10:14:32;;;;;;;9.38;5.33;;;20.30;99.90;;;;;;1952800;72;21134;-86
2022/10/14 10:17:23;;;;;;;8.35;5.55;;;20.20;99.90;;;;;;2040162;69;21621;-85
2022/10/14 10:20:27;;;;;;;7.12;4.55;;;20.00;99.90;;;;;;2040418;69;21099;-86
2022/10/14 10:23:25;;;;;;;7.95;4.37;;;20.20;99.90;;;;;;2055917;69;21076;-86
2022/10/14 10:26:21;;;;;;;6.08;3.62;;;20.30;99.90;;;;;;2039880;69;21081;-86
2022/10/14 10:29:18;;;;;;;8.40;4.33;;;20.40;99.90;;;;;;2049037;69;21100;-86
2022/10/14 10:32:14;;;;;;;12.03;4.78;;;20.50;99.90;;;;;;2047613;69;21027;-86
2022/10/14 10:38:10;;;;;;;7.92;4.17;;;20.50;99.90;;;;;;1944174;72;22258;-88
2022/10/14 10:41:09;;;;;;;11.35;5.45;;;20.70;99.90;;;;;;1935926;73;21635;-86
2022/10/14 10:44:09;;;;;;;8.23;4.78;;;20.80;99.90;;;;;;1917427;75;21257;-86
2022/10/14 10:47:09;;;;;;;8.33;5.17;;;20.80;99.90;;;;;;1919399;73;21052;-87
2022/10/14 10:50:09;;;;;;;6.92;4.12;;;20.80;99.90;;;;;;1918664;73;21064;-86
2022/10/14 10:56:18;;;;;;;8.93;5.10;;;20.90;99.90;;;;;;1936288;72;22199;-87
2022/10/14 10:59:51;;;;;;;7.12;4.80;;;21.10;99.90;;;;;;1898392;75;21051;-88
2022/10/14 11:03:00;;;;;;;7.95;4.62;;;21.20;99.90;;;;;;1892674;75;21124;-86
2022/10/14 11:12:14;;;;;;;17.32;6.70;;;21.30;99.90;;;;;;1896107;75;21103;-85
2022/10/14 11:15:21;;;;;;;;;;;21.20;99.90;;;;;;1888461;75;21648;-86
2022/10/14 11:18:15;;;;;;;7.12;5.60;;;21.20;99.90;;;;;;1897307;75;20130;-86
2022/10/14 11:24:00;;;;;;;7.85;5.83;;;21.10;99.90;;;;;;1933179;72;22211;-86
2022/10/14 11:27:01;;;;;;;7.15;5.50;;;21.30;99.90;;;;;;1885530;75;21114;-86
2022/10/14 11:32:41;;;;;;;8.15;6.10;;;21.60;99.90;;;;;;1938491;72;22086;-86
2022/10/14 11:35:40;;;;;;;9.90;5.65;;;21.80;99.90;;;;;;1899536;75;21197;-86
2022/10/14 11:38:51;;;;;;;10.23;5.50;;;21.80;99.90;;;;;;1903107;73;21114;-86
2022/10/14 11:44:37;;;;;;;7.45;5.20;;;21.60;99.90;;;;;;1929717;72;22322;-86
2022/10/14 11:47:31;;;;;;;9.20;5.20;;;21.60;99.90;;;;;;1900899;75;21166;-85
2022/10/14 11:53:12;;;;;;;8.95;5.50;;;21.30;99.90;;;;;;1920150;72;28045;-85
2022/10/14 11:58:55;;;;;;;5.55;3.80;;;21.80;99.90;;;;;;1942861;72;22147;-86
2022/10/14 12:01:49;;;;;;;5.85;3.35;;;21.60;99.90;;;;;;1919509;73;21570;-86
2022/10/14 12:07:22;;;;;;;5.53;2.75;;;21.30;99.90;;;;;;1952098;72;22235;-85
2022/10/14 12:13:01;;;;;;;7.72;3.40;;;21.20;99.90;;;;;;1940387;72;22122;-87
2022/10/14 12:15:54;;;;;;;4.15;2.80;;;21.20;99.90;;;;;;1914948;74;21186;-87
2022/10/14 12:18:47;;;;;;;6.47;3.05;;;21.10;99.90;;;;;;1867192;76;21596;-87
2022/10/14 12:21:42;;;;;;;4.12;2.98;;;21.10;99.90;;;;;;1886962;75;21058;-86
2022/10/14 12:24:37;;;;;;;5.75;3.42;;;21.10;99.90;;;;;;1882782;73;21184;-86
2022/10/14 12:27:30;;;;;;;5.97;3.33;;;21.20;99.90;;;;;;1908207;75;21561;-86
2022/10/14 12:33:12;;;;;;;6.42;3.25;;;21.20;99.90;;;;;;1957379;72;22152;-74
2022/10/14 12:38:47;;;;;;;9.65;3.40;;;21.20;99.90;;;;;;1935064;72;22122;-74
2022/10/14 12:44:22;;;;;;;6.45;3.60;;;21.10;99.90;;;;;;1953244;72;22190;-76
2022/10/14 12:47:20;;;;;;;5.78;3.60;;;21.00;99.90;;;;;;1939595;72;21041;-75
2022/10/14 12:50:27;;;;;;;7.17;3.40;;;21.10;99.90;;;;;;1941663;73;21177;-74
2022/10/14 12:56:03;;;;;;;5.22;3.02;;;21.20;99.90;;;;;;1937429;72;22182;-73
2022/10/14 12:58:59;;;;;;;7.03;3.77;;;21.20;99.90;;;;;;1887499;74;21062;-74
2022/10/14 13:02:03;;;;;;;7.30;3.10;;;21.10;99.90;;;;;;1905024;75;21054;-74
2022/10/14 13:04:55;;;;;;;7.17;2.98;;;21.10;99.90;;;;;;1886197;75;21203;-74
2022/10/14 13:07:48;;;;;;;6.80;3.00;;;21.30;99.90;;;;;;1889540;75;21082;-74
2022/10/14 13:10:47;;;;;;;5.58;2.80;;;21.20;99.90;;;;;;1887518;75;21168;-73
2022/10/14 13:13:52;;;;;;;6.60;2.70;;;21.10;99.90;;;;;;1894040;75;21123;-74
2022/10/14 13:19:46;;;;;;;4.92;2.45;;;21.00;99.90;;;;;;1942421;72;22164;-76
2022/10/14 13:22:42;;;;;;;4.30;2.37;;;21.00;99.90;;;;;;1912403;73;21168;-74
2022/10/14 13:25:33;;;;;;;5.92;2.27;;;21.10;99.90;;;;;;1907693;75;21097;-74
2022/10/14 13:28:28;;;;;;;4.33;1.98;;;21.10;99.90;;;;;;1915434;75;21191;-74
2022/10/14 13:31:22;;;;;;;4.42;2.60;;;21.10;99.90;;;;;;1903625;75;21047;-75
2022/10/14 13:34:20;;;;;;;7.33;2.70;;;21.10;99.90;;;;;;1907898;75;21145;-76
2022/10/14 13:40:33;;;;;;;7.75;3.33;;;21.20;99.90;;;;;;1949002;72;22173;-76
2022/10/14 13:43:25;;;;;;;;;;;21.30;99.90;;;;;;1929950;73;21098;-75
2022/10/14 13:46:21;;;;;;;7.45;3.40;;;21.30;99.90;;;;;;1932675;73;20168;-74
2022/10/14 13:49:19;;;;;;;5.65;3.47;;;21.10;99.90;;;;;;1949403;73;21039;-74
2022/10/14 13:52:15;;;;;;;5.90;3.30;;;21.20;99.90;;;;;;1939185;73;21148;-75
2022/10/14 13:55:16;;;;;;;5.67;3.60;;;21.30;99.90;;;;;;1929604;73;21121;-74
2022/10/14 13:58:13;;;;;;;6.80;3.40;;;21.40;99.90;;;;;;1928590;73;21607;-74
2022/10/14 14:01:07;;;;;;;6.58;3.27;;;21.60;99.90;;;;;;1938189;73;21121;-74
2022/10/14 14:04:00;;;;;;;7.83;3.27;;;21.70;99.90;;;;;;1938013;73;21082;-74
2022/10/14 14:06:52;;;;;;;6.72;3.83;;;21.70;99.90;;;;;;1929110;73;21071;-74
2022/10/14 14:12:26;;;;;;;6.72;3.60;;;21.80;99.90;;;;;;1932612;72;22138;-74
2022/10/14 14:17:57;;;;;;;4.72;3.20;;;21.70;99.90;;;;;;1914305;72;22970;-74
2022/10/14 14:20:57;;;;;;;6.17;3.45;;;21.60;99.90;;;;;;1893682;73;21234;-75
2022/10/14 14:23:53;;;;;;;5.33;3.50;;;21.50;99.90;;;;;;1908854;74;21843;-74
2022/10/14 14:26:45;;;;;;;6.33;3.77;;;21.50;99.90;;;;;;1912598;73;21059;-74
2022/10/14 14:29:38;;;;;;;4.75;2.90;;;21.40;99.90;;;;;;1890746;75;21054;-75
2022/10/14 14:32:32;;;;;;;5.72;3.22;;;21.40;99.90;;;;;;1884961;75;21110;-74
2022/10/14 14:38:02;;;;;;;8.33;4.05;;;21.70;99.90;;;;;;1942044;72;22135;-74
2022/10/14 14:41:03;;;;;;;8.58;3.40;;;21.70;99.90;;;;;;1927227;73;21252;-74
2022/10/14 14:43:57;;;;;;;6.87;3.10;;;21.70;99.90;;;;;;1917066;73;21130;-75
2022/10/14 14:49:33;;;;;;;6.20;3.35;;;21.60;99.90;;;;;;1936494;72;22196;-74
2022/10/14 14:52:27;;;;;;;8.08;3.60;;;21.60;99.90;;;;;;1902724;73;21567;-74
2022/10/14 14:55:41;;;;;;;5.08;3.08;;;21.50;99.90;;;;;;1892075;75;21094;-74
2022/10/14 14:58:36;;;;;;;4.67;2.70;;;21.30;99.90;;;;;;1888103;75;21121;-74
2022/10/14 15:01:30;;;;;;;5.22;3.02;;;21.20;99.90;;;;;;1903531;75;21896;-74
2022/10/14 15:04:24;;;;;;;11.45;3.52;;;21.10;99.90;;;;;;1834053;77;21117;-74
2022/10/14 15:07:16;;;;;;;10.53;3.67;;;21.20;99.90;;;;;;1911717;75;21084;-74
2022/10/14 15:10:21;;;;;;;6.10;2.80;;;21.10;99.90;;;;;;1885053;75;21167;-74
2022/10/14 15:13:36;;;;;;;8.53;3.33;;;21.20;99.90;;;;;;1904854;75;21055;-74
2022/10/14 15:16:40;;;;;;;6.05;2.90;;;21.20;99.90;;;;;;1873829;76;21485;-74
2022/10/14 15:19:35;;;;;;;6.85;3.47;;;21.20;99.90;;;;;;1909496;75;21109;-75
2022/10/14 15:22:37;;;;;;;6.87;3.02;;;21.20;99.90;;;;;;1891782;75;21035;-76
2022/10/14 15:25:31;;;;;;;6.20;3.20;;;21.20;99.90;;;;;;1897608;75;21687;-74
2022/10/14 15:28:31;;;;;;;7.22;3.30;;;21.10;99.90;;;;;;1888662;75;21121;-74
2022/10/14 15:31:24;;;;;;;7.37;3.92;;;21.10;99.90;;;;;;1902812;75;21102;-74
2022/10/14 15:34:21;;;;;;;4.90;3.27;;;21.10;99.90;;;;;;1893669;73;21150;-74
2022/10/14 15:37:14;;;;;;;6.53;3.80;;;21.10;99.90;;;;;;1854578;75;21207;-74
2022/10/14 15:40:11;;;;;;;10.78;3.70;;;21.10;99.90;;;;;;1903076;75;21116;-74
2022/10/14 15:43:06;;;;;;;7.83;3.97;;;21.10;99.90;;;;;;1896179;75;21084;-74
2022/10/14 15:48:37;;;;;;;10.08;5.90;;;20.90;99.90;;;;;;1932458;72;22209;-76
2022/10/14 15:51:30;;;;;;;7.90;3.60;;;20.80;99.90;;;;;;1896804;75;21066;-74
2022/10/14 15:54:25;;;;;;;8.88;3.47;;;20.70;99.90;;;;;;1914794;75;21127;-75
2022/10/14 15:57:17;;;;;;;5.85;3.52;;;20.70;99.90;;;;;;1913335;74;21112;-75
2022/10/14 16:02:53;;;;;;;7.58;2.92;;;20.60;99.90;;;;;;1945906;72;22138;-74
2022/10/14 16:08:29;;;;;;;7.95;3.92;;;20.40;99.90;;;;;;1936540;72;28352;-76
2022/10/14 16:11:24;;;;;;;9.05;3.92;;;20.70;99.90;;;;;;1939159;73;21153;-74
2022/10/14 16:14:15;;;;;;;6.35;3.70;;;20.60;99.90;;;;;;1917136;73;21068;-74
2022/10/14 16:17:08;;;;;;;6.65;4.20;;;20.50;99.90;;;;;;1934127;73;21101;-74
2022/10/14 16:20:01;;;;;;;7.00;4.75;;;20.40;99.90;;;;;;1925812;73;21112;-74
2022/10/14 16:22:54;;;;;;;6.78;4.65;;;20.20;99.90;;;;;;1925816;73;21136;-74
2022/10/14 16:28:26;;;;;;;4.95;4.03;;;20.10;99.90;;;;;;1945000;72;22110;-76
2022/10/14 16:31:17;;;;;;;9.53;4.35;;;20.10;99.90;;;;;;1909262;75;21100;-74
2022/10/14 16:34:09;;;;;;;4.40;3.10;;;20.10;99.90;;;;;;1888716;75;21231;-74
2022/10/14 16:37:00;;;;;;;4.97;3.20;;;20.00;99.90;;;;;;1897777;75;21075;-74
2022/10/14 16:42:31;;;;;;;9.20;3.50;;;19.90;99.90;;;;;;1951247;72;22276;-74
2022/10/14 16:45:22;;;;;;;4.37;3.17;;;19.90;99.90;;;;;;1939686;73;21131;-73
2022/10/14 16:48:13;;;;;;;6.28;3.40;;;19.90;99.90;;;;;;1924000;73;21094;-76
2022/10/14 16:51:05;;;;;;;4.60;3.40;;;19.80;99.90;;;;;;1921782;73;21119;-74
2022/10/14 16:53:57;;;;;;;7.28;3.67;;;19.80;99.90;;;;;;1925046;73;21051;-74
2022/10/14 16:56:55;;;;;;;6.03;3.10;;;19.80;99.90;;;;;;1916113;73;21132;-74
2022/10/14 16:59:46;;;;;;;5.67;3.62;;;19.80;99.90;;;;;;1943695;73;21224;-74
2022/10/14 17:02:38;;;;;;;6.92;3.67;;;19.70;99.90;;;;;;1919350;73;21046;-74